sensor_id;sensor_type;location;lat;lon;timestamp;P1;durP1;ratioP1;P2;durP2;ratioP2
55288;SDS011;41154;45.394;5.734;2023-05-29T00:00:19;5.45;;;3.53;;
55288;SDS011;41154;45.394;5.734;2023-05-29T00:02:55;5.15;;;3.40;;
55288;SDS011;41154;45.394;5.734;2023-05-29T00:05:33;8.23;;;4.03;;
55288;SDS011;41154;45.394;5.734;2023-05-29T00:08:03;6.20;;;3.97;;
55288;SDS011;41154;45.394;5.734;2023-05-29T00:10:29;6.72;;;3.50;;
55288;SDS011;41154;45.394;5.734;2023-05-29T00:12:56;6.85;;;3.95;;
55288;SDS011;41154;45.394;5.734;2023-05-29T00:15:23;6.18;;;4.05;;
55288;SDS011;41154;45.394;5.734;2023-05-29T00:17:48;6.88;;;4.00;;
55288;SDS011;41154;45.394;5.734;2023-05-29T00:20:14;6.07;;;3.55;;
55288;SDS011;41154;45.394;5.734;2023-05-29T00:22:40;5.90;;;3.78;;
55288;SDS011;41154;45.394;5.734;2023-05-29T00:25:07;6.72;;;3.80;;
55288;SDS011;41154;45.394;5.734;2023-05-29T00:27:33;6.85;;;3.53;;
55288;SDS011;41154;45.394;5.734;2023-05-29T00:30:00;4.00;;;3.03;;
55288;SDS011;41154;45.394;5.734;2023-05-29T00:32:28;11.43;;;3.20;;
55288;SDS011;41154;45.394;5.734;2023-05-29T00:34:54;3.40;;;2.55;;
55288;SDS011;41154;45.394;5.734;2023-05-29T00:37:20;4.35;;;2.90;;
55288;SDS011;41154;45.394;5.734;2023-05-29T00:39:47;5.80;;;3.00;;
55288;SDS011;41154;45.394;5.734;2023-05-29T00:42:13;4.47;;;3.13;;
55288;SDS011;41154;45.394;5.734;2023-05-29T00:44:39;5.13;;;3.30;;
55288;SDS011;41154;45.394;5.734;2023-05-29T00:47:05;5.80;;;3.40;;
55288;SDS011;41154;45.394;5.734;2023-05-29T00:49:31;3.90;;;2.90;;
55288;SDS011;41154;45.394;5.734;2023-05-29T00:51:58;4.47;;;3.08;;
55288;SDS011;41154;45.394;5.734;2023-05-29T00:54:29;3.63;;;2.67;;
55288;SDS011;41154;45.394;5.734;2023-05-29T00:56:58;4.82;;;3.05;;
55288;SDS011;41154;45.394;5.734;2023-05-29T00:59:30;10.70;;;2.97;;
55288;SDS011;41154;45.394;5.734;2023-05-29T01:01:59;4.90;;;3.50;;
55288;SDS011;41154;45.394;5.734;2023-05-29T01:04:27;5.43;;;2.60;;
55288;SDS011;41154;45.394;5.734;2023-05-29T01:06:53;10.30;;;3.35;;
55288;SDS011;41154;45.394;5.734;2023-05-29T01:09:19;4.53;;;3.00;;
55288;SDS011;41154;45.394;5.734;2023-05-29T01:14:43;4.75;;;3.13;;
55288;SDS011;41154;45.394;5.734;2023-05-29T01:18:21;4.45;;;3.10;;
55288;SDS011;41154;45.394;5.734;2023-05-29T01:20:52;11.68;;;3.00;;
55288;SDS011;41154;45.394;5.734;2023-05-29T01:23:34;7.35;;;2.92;;
55288;SDS011;41154;45.394;5.734;2023-05-29T01:29:09;6.85;;;2.50;;
55288;SDS011;41154;45.394;5.734;2023-05-29T01:31:42;8.63;;;2.63;;
55288;SDS011;41154;45.394;5.734;2023-05-29T01:34:10;7.32;;;2.70;;
55288;SDS011;41154;45.394;5.734;2023-05-29T01:36:36;4.45;;;2.40;;
55288;SDS011;41154;45.394;5.734;2023-05-29T01:39:02;8.15;;;3.05;;
55288;SDS011;41154;45.394;5.734;2023-05-29T01:41:28;7.25;;;3.35;;
55288;SDS011;41154;45.394;5.734;2023-05-29T01:43:55;4.18;;;2.97;;
55288;SDS011;41154;45.394;5.734;2023-05-29T01:46:23;5.32;;;3.35;;
55288;SDS011;41154;45.394;5.734;2023-05-29T01:48:50;5.30;;;3.17;;
55288;SDS011;41154;45.394;5.734;2023-05-29T01:51:18;5.72;;;3.78;;
55288;SDS011;41154;45.394;5.734;2023-05-29T01:53:45;4.53;;;2.92;;
55288;SDS011;41154;45.394;5.734;2023-05-29T01:56:11;3.95;;;2.78;;
55288;SDS011;41154;45.394;5.734;2023-05-29T01:58:38;3.92;;;2.70;;
55288;SDS011;41154;45.394;5.734;2023-05-29T02:01:05;10.07;;;2.88;;
55288;SDS011;41154;45.394;5.734;2023-05-29T02:03:33;5.53;;;3.28;;
55288;SDS011;41154;45.394;5.734;2023-05-29T02:05:59;4.07;;;2.88;;
55288;SDS011;41154;45.394;5.734;2023-05-29T02:08:25;6.07;;;2.80;;
55288;SDS011;41154;45.394;5.734;2023-05-29T02:10:52;3.38;;;2.55;;
55288;SDS011;41154;45.394;5.734;2023-05-29T02:13:18;5.82;;;2.50;;
55288;SDS011;41154;45.394;5.734;2023-05-29T02:15:44;7.80;;;3.20;;
55288;SDS011;41154;45.394;5.734;2023-05-29T02:18:11;4.63;;;2.90;;
55288;SDS011;41154;45.394;5.734;2023-05-29T02:20:39;9.77;;;3.20;;
55288;SDS011;41154;45.394;5.734;2023-05-29T02:23:08;8.00;;;3.00;;
55288;SDS011;41154;45.394;5.734;2023-05-29T02:25:34;6.05;;;2.80;;
55288;SDS011;41154;45.394;5.734;2023-05-29T02:28:01;10.27;;;3.10;;
55288;SDS011;41154;45.394;5.734;2023-05-29T02:30:27;5.55;;;2.97;;
55288;SDS011;41154;45.394;5.734;2023-05-29T02:32:53;4.30;;;2.90;;
55288;SDS011;41154;45.394;5.734;2023-05-29T02:35:19;4.90;;;3.05;;
55288;SDS011;41154;45.394;5.734;2023-05-29T02:37:48;10.10;;;2.90;;
55288;SDS011;41154;45.394;5.734;2023-05-29T02:40:17;4.45;;;2.05;;
55288;SDS011;41154;45.394;5.734;2023-05-29T02:42:44;14.35;;;2.20;;
55288;SDS011;41154;45.394;5.734;2023-05-29T02:45:11;16.52;;;2.42;;
55288;SDS011;41154;45.394;5.734;2023-05-29T02:47:37;13.55;;;2.53;;
55288;SDS011;41154;45.394;5.734;2023-05-29T02:50:04;13.55;;;2.67;;
55288;SDS011;41154;45.394;5.734;2023-05-29T02:52:31;5.03;;;2.30;;
55288;SDS011;41154;45.394;5.734;2023-05-29T02:54:59;12.65;;;2.75;;
55288;SDS011;41154;45.394;5.734;2023-05-29T02:57:25;8.98;;;2.50;;
55288;SDS011;41154;45.394;5.734;2023-05-29T02:59:51;8.98;;;2.38;;
55288;SDS011;41154;45.394;5.734;2023-05-29T03:02:18;12.43;;;2.60;;
55288;SDS011;41154;45.394;5.734;2023-05-29T03:04:44;9.63;;;2.58;;
55288;SDS011;41154;45.394;5.734;2023-05-29T03:07:11;6.57;;;2.80;;
55288;SDS011;41154;45.394;5.734;2023-05-29T03:09:38;6.47;;;2.75;;
55288;SDS011;41154;45.394;5.734;2023-05-29T03:12:04;3.97;;;2.00;;
55288;SDS011;41154;45.394;5.734;2023-05-29T03:14:30;7.55;;;2.00;;
55288;SDS011;41154;45.394;5.734;2023-05-29T03:17:05;4.78;;;2.17;;
55288;SDS011;41154;45.394;5.734;2023-05-29T03:19:33;7.35;;;2.33;;
55288;SDS011;41154;45.394;5.734;2023-05-29T03:22:00;10.63;;;2.05;;
55288;SDS011;41154;45.394;5.734;2023-05-29T03:24:26;14.98;;;1.98;;
55288;SDS011;41154;45.394;5.734;2023-05-29T03:26:53;11.20;;;2.00;;
55288;SDS011;41154;45.394;5.734;2023-05-29T03:29:18;12.40;;;2.10;;
55288;SDS011;41154;45.394;5.734;2023-05-29T03:31:44;6.57;;;2.03;;
55288;SDS011;41154;45.394;5.734;2023-05-29T03:34:17;6.90;;;2.10;;
55288;SDS011;41154;45.394;5.734;2023-05-29T03:36:49;12.43;;;2.50;;
55288;SDS011;41154;45.394;5.734;2023-05-29T03:39:15;4.75;;;2.58;;
55288;SDS011;41154;45.394;5.734;2023-05-29T03:41:41;5.78;;;2.45;;
55288;SDS011;41154;45.394;5.734;2023-05-29T03:44:09;5.88;;;2.85;;
55288;SDS011;41154;45.394;5.734;2023-05-29T03:46:35;10.10;;;2.75;;
55288;SDS011;41154;45.394;5.734;2023-05-29T03:49:00;6.38;;;2.75;;
55288;SDS011;41154;45.394;5.734;2023-05-29T03:51:26;4.95;;;2.63;;
55288;SDS011;41154;45.394;5.734;2023-05-29T03:53:54;3.70;;;2.08;;
55288;SDS011;41154;45.394;5.734;2023-05-29T03:56:20;8.13;;;2.35;;
55288;SDS011;41154;45.394;5.734;2023-05-29T03:58:46;8.95;;;2.47;;
55288;SDS011;41154;45.394;5.734;2023-05-29T04:01:13;10.50;;;2.35;;
55288;SDS011;41154;45.394;5.734;2023-05-29T04:03:39;5.45;;;2.35;;
55288;SDS011;41154;45.394;5.734;2023-05-29T04:06:04;4.03;;;2.15;;
55288;SDS011;41154;45.394;5.734;2023-05-29T04:08:31;6.28;;;2.13;;
55288;SDS011;41154;45.394;5.734;2023-05-29T04:10:57;5.47;;;2.33;;
55288;SDS011;41154;45.394;5.734;2023-05-29T04:13:23;4.32;;;2.63;;
55288;SDS011;41154;45.394;5.734;2023-05-29T04:15:48;6.00;;;2.40;;
55288;SDS011;41154;45.394;5.734;2023-05-29T04:18:15;4.90;;;2.35;;
55288;SDS011;41154;45.394;5.734;2023-05-29T04:20:41;9.43;;;2.47;;
55288;SDS011;41154;45.394;5.734;2023-05-29T04:23:07;10.43;;;3.28;;
55288;SDS011;41154;45.394;5.734;2023-05-29T04:25:33;7.50;;;3.03;;
55288;SDS011;41154;45.394;5.734;2023-05-29T04:28:00;8.23;;;2.67;;
55288;SDS011;41154;45.394;5.734;2023-05-29T04:30:28;3.50;;;2.25;;
55288;SDS011;41154;45.394;5.734;2023-05-29T04:32:54;6.25;;;2.03;;
55288;SDS011;41154;45.394;5.734;2023-05-29T04:35:22;10.27;;;2.30;;
55288;SDS011;41154;45.394;5.734;2023-05-29T04:38:01;5.95;;;2.00;;
55288;SDS011;41154;45.394;5.734;2023-05-29T04:40:30;6.32;;;2.05;;
55288;SDS011;41154;45.394;5.734;2023-05-29T04:42:58;5.05;;;2.45;;
55288;SDS011;41154;45.394;5.734;2023-05-29T04:45:36;14.90;;;2.90;;
55288;SDS011;41154;45.394;5.734;2023-05-29T04:48:03;12.43;;;2.35;;
55288;SDS011;41154;45.394;5.734;2023-05-29T04:50:30;7.97;;;2.60;;
55288;SDS011;41154;45.394;5.734;2023-05-29T04:52:58;21.00;;;2.75;;
55288;SDS011;41154;45.394;5.734;2023-05-29T04:55:24;14.82;;;2.90;;
55288;SDS011;41154;45.394;5.734;2023-05-29T04:57:49;4.78;;;2.75;;
55288;SDS011;41154;45.394;5.734;2023-05-29T05:00:15;9.20;;;2.42;;
55288;SDS011;41154;45.394;5.734;2023-05-29T05:02:44;23.77;;;2.83;;
55288;SDS011;41154;45.394;5.734;2023-05-29T05:05:12;8.70;;;2.00;;
55288;SDS011;41154;45.394;5.734;2023-05-29T05:07:38;7.72;;;2.20;;
55288;SDS011;41154;45.394;5.734;2023-05-29T05:10:05;14.85;;;2.00;;
55288;SDS011;41154;45.394;5.734;2023-05-29T05:12:32;5.10;;;2.15;;
55288;SDS011;41154;45.394;5.734;2023-05-29T05:15:00;4.68;;;2.08;;
55288;SDS011;41154;45.394;5.734;2023-05-29T05:17:27;19.35;;;2.60;;
55288;SDS011;41154;45.394;5.734;2023-05-29T05:19:53;12.50;;;2.20;;
55288;SDS011;41154;45.394;5.734;2023-05-29T05:22:19;10.95;;;1.95;;
55288;SDS011;41154;45.394;5.734;2023-05-29T05:24:47;9.32;;;2.05;;
55288;SDS011;41154;45.394;5.734;2023-05-29T05:27:12;8.10;;;1.88;;
55288;SDS011;41154;45.394;5.734;2023-05-29T05:29:38;9.60;;;1.85;;
55288;SDS011;41154;45.394;5.734;2023-05-29T05:32:05;3.65;;;1.75;;
55288;SDS011;41154;45.394;5.734;2023-05-29T05:34:32;2.17;;;1.80;;
55288;SDS011;41154;45.394;5.734;2023-05-29T05:36:58;4.13;;;2.05;;
55288;SDS011;41154;45.394;5.734;2023-05-29T05:39:24;4.57;;;2.22;;
55288;SDS011;41154;45.394;5.734;2023-05-29T05:41:50;2.90;;;2.17;;
55288;SDS011;41154;45.394;5.734;2023-05-29T05:44:31;2.22;;;1.90;;
55288;SDS011;41154;45.394;5.734;2023-05-29T05:47:06;5.40;;;2.15;;
55288;SDS011;41154;45.394;5.734;2023-05-29T05:49:31;3.47;;;1.98;;
55288;SDS011;41154;45.394;5.734;2023-05-29T05:51:58;2.72;;;2.13;;
55288;SDS011;41154;45.394;5.734;2023-05-29T05:54:24;3.38;;;2.08;;
55288;SDS011;41154;45.394;5.734;2023-05-29T05:56:49;4.35;;;1.88;;
55288;SDS011;41154;45.394;5.734;2023-05-29T05:59:17;3.28;;;2.40;;
55288;SDS011;41154;45.394;5.734;2023-05-29T06:01:43;3.72;;;2.13;;
55288;SDS011;41154;45.394;5.734;2023-05-29T06:04:09;2.35;;;1.83;;
55288;SDS011;41154;45.394;5.734;2023-05-29T06:06:35;2.83;;;2.00;;
55288;SDS011;41154;45.394;5.734;2023-05-29T06:09:01;5.13;;;2.20;;
55288;SDS011;41154;45.394;5.734;2023-05-29T06:11:27;2.63;;;1.92;;
55288;SDS011;41154;45.394;5.734;2023-05-29T06:13:54;2.65;;;2.03;;
55288;SDS011;41154;45.394;5.734;2023-05-29T06:16:25;2.40;;;1.80;;
55288;SDS011;41154;45.394;5.734;2023-05-29T06:18:52;2.67;;;2.20;;
55288;SDS011;41154;45.394;5.734;2023-05-29T06:21:18;2.47;;;1.90;;
55288;SDS011;41154;45.394;5.734;2023-05-29T06:23:51;2.88;;;1.85;;
55288;SDS011;41154;45.394;5.734;2023-05-29T06:26:17;2.67;;;1.85;;
55288;SDS011;41154;45.394;5.734;2023-05-29T06:28:43;3.08;;;2.00;;
55288;SDS011;41154;45.394;5.734;2023-05-29T06:31:09;3.17;;;1.67;;
55288;SDS011;41154;45.394;5.734;2023-05-29T06:33:35;2.67;;;2.00;;
55288;SDS011;41154;45.394;5.734;2023-05-29T06:36:04;3.17;;;1.98;;
55288;SDS011;41154;45.394;5.734;2023-05-29T06:38:29;3.92;;;2.30;;
55288;SDS011;41154;45.394;5.734;2023-05-29T06:40:56;3.03;;;2.40;;
55288;SDS011;41154;45.394;5.734;2023-05-29T06:43:21;4.40;;;2.17;;
55288;SDS011;41154;45.394;5.734;2023-05-29T06:45:48;4.82;;;2.72;;
55288;SDS011;41154;45.394;5.734;2023-05-29T06:48:16;5.65;;;2.70;;
55288;SDS011;41154;45.394;5.734;2023-05-29T06:50:44;4.22;;;2.92;;
55288;SDS011;41154;45.394;5.734;2023-05-29T06:53:29;5.18;;;2.80;;
55288;SDS011;41154;45.394;5.734;2023-05-29T06:55:55;3.83;;;2.83;;
55288;SDS011;41154;45.394;5.734;2023-05-29T06:58:21;2.97;;;2.67;;
55288;SDS011;41154;45.394;5.734;2023-05-29T07:00:47;5.15;;;2.63;;
55288;SDS011;41154;45.394;5.734;2023-05-29T07:03:27;4.78;;;2.92;;
55288;SDS011;41154;45.394;5.734;2023-05-29T07:05:53;3.95;;;2.95;;
55288;SDS011;41154;45.394;5.734;2023-05-29T07:08:19;3.33;;;2.60;;
55288;SDS011;41154;45.394;5.734;2023-05-29T07:10:46;5.10;;;2.72;;
55288;SDS011;41154;45.394;5.734;2023-05-29T07:13:14;3.20;;;2.80;;
55288;SDS011;41154;45.394;5.734;2023-05-29T07:15:40;4.85;;;2.58;;
55288;SDS011;41154;45.394;5.734;2023-05-29T07:18:07;3.50;;;2.50;;
55288;SDS011;41154;45.394;5.734;2023-05-29T07:20:33;3.42;;;2.78;;
55288;SDS011;41154;45.394;5.734;2023-05-29T07:22:59;5.10;;;3.22;;
55288;SDS011;41154;45.394;5.734;2023-05-29T07:25:26;5.43;;;2.47;;
55288;SDS011;41154;45.394;5.734;2023-05-29T07:27:52;7.85;;;2.72;;
55288;SDS011;41154;45.394;5.734;2023-05-29T07:30:18;5.20;;;3.03;;
55288;SDS011;41154;45.394;5.734;2023-05-29T07:32:44;4.35;;;2.70;;
55288;SDS011;41154;45.394;5.734;2023-05-29T07:35:12;3.90;;;2.72;;
55288;SDS011;41154;45.394;5.734;2023-05-29T07:37:37;5.18;;;2.58;;
55288;SDS011;41154;45.394;5.734;2023-05-29T07:40:04;4.88;;;2.72;;
55288;SDS011;41154;45.394;5.734;2023-05-29T07:42:49;3.63;;;2.28;;
55288;SDS011;41154;45.394;5.734;2023-05-29T07:45:16;4.22;;;2.58;;
55288;SDS011;41154;45.394;5.734;2023-05-29T07:47:45;4.35;;;2.75;;
55288;SDS011;41154;45.394;5.734;2023-05-29T07:50:13;4.30;;;2.53;;
55288;SDS011;41154;45.394;5.734;2023-05-29T07:52:39;4.20;;;2.78;;
55288;SDS011;41154;45.394;5.734;2023-05-29T07:55:07;6.10;;;2.70;;
55288;SDS011;41154;45.394;5.734;2023-05-29T07:57:33;5.05;;;2.72;;
55288;SDS011;41154;45.394;5.734;2023-05-29T08:00:00;3.55;;;2.70;;
55288;SDS011;41154;45.394;5.734;2023-05-29T08:02:32;3.97;;;2.67;;
55288;SDS011;41154;45.394;5.734;2023-05-29T08:05:20;3.53;;;2.92;;
55288;SDS011;41154;45.394;5.734;2023-05-29T08:07:46;4.68;;;2.58;;
55288;SDS011;41154;45.394;5.734;2023-05-29T08:10:13;4.90;;;2.83;;
55288;SDS011;41154;45.394;5.734;2023-05-29T08:12:39;3.75;;;3.05;;
55288;SDS011;41154;45.394;5.734;2023-05-29T08:15:07;3.58;;;2.70;;
55288;SDS011;41154;45.394;5.734;2023-05-29T08:17:35;4.60;;;2.58;;
55288;SDS011;41154;45.394;5.734;2023-05-29T08:20:01;4.65;;;2.85;;
55288;SDS011;41154;45.394;5.734;2023-05-29T08:22:32;5.47;;;3.00;;
55288;SDS011;41154;45.394;5.734;2023-05-29T08:24:59;5.80;;;3.25;;
55288;SDS011;41154;45.394;5.734;2023-05-29T08:27:25;4.88;;;3.00;;
55288;SDS011;41154;45.394;5.734;2023-05-29T08:29:51;5.35;;;3.38;;
55288;SDS011;41154;45.394;5.734;2023-05-29T08:32:16;4.45;;;3.10;;
55288;SDS011;41154;45.394;5.734;2023-05-29T08:34:42;4.72;;;3.08;;
55288;SDS011;41154;45.394;5.734;2023-05-29T08:37:10;5.55;;;2.85;;
55288;SDS011;41154;45.394;5.734;2023-05-29T08:39:36;5.20;;;3.08;;
55288;SDS011;41154;45.394;5.734;2023-05-29T08:42:07;4.15;;;3.05;;
55288;SDS011;41154;45.394;5.734;2023-05-29T08:44:39;5.43;;;3.10;;
55288;SDS011;41154;45.394;5.734;2023-05-29T08:47:06;5.22;;;2.90;;
55288;SDS011;41154;45.394;5.734;2023-05-29T08:49:42;4.75;;;3.08;;
55288;SDS011;41154;45.394;5.734;2023-05-29T08:52:23;4.00;;;3.10;;
55288;SDS011;41154;45.394;5.734;2023-05-29T08:54:53;4.43;;;3.10;;
55288;SDS011;41154;45.394;5.734;2023-05-29T08:57:20;4.50;;;3.05;;
55288;SDS011;41154;45.394;5.734;2023-05-29T08:59:46;6.80;;;3.03;;
55288;SDS011;41154;45.394;5.734;2023-05-29T09:02:16;3.92;;;2.78;;
55288;SDS011;41154;45.394;5.734;2023-05-29T09:04:42;4.78;;;3.28;;
55288;SDS011;41154;45.394;5.734;2023-05-29T09:07:14;4.60;;;2.90;;
55288;SDS011;41154;45.394;5.734;2023-05-29T09:09:41;4.68;;;2.97;;
55288;SDS011;41154;45.394;5.734;2023-05-29T09:12:07;4.70;;;2.80;;
55288;SDS011;41154;45.394;5.734;2023-05-29T09:14:44;7.28;;;3.00;;
55288;SDS011;41154;45.394;5.734;2023-05-29T09:17:11;8.02;;;3.92;;
55288;SDS011;41154;45.394;5.734;2023-05-29T09:19:37;4.15;;;3.45;;
55288;SDS011;41154;45.394;5.734;2023-05-29T09:22:06;6.07;;;3.30;;
55288;SDS011;41154;45.394;5.734;2023-05-29T09:24:33;4.78;;;3.47;;
55288;SDS011;41154;45.394;5.734;2023-05-29T09:30:04;4.40;;;3.35;;
55288;SDS011;41154;45.394;5.734;2023-05-29T09:32:31;4.95;;;3.30;;
55288;SDS011;41154;45.394;5.734;2023-05-29T09:34:59;7.10;;;3.38;;
55288;SDS011;41154;45.394;5.734;2023-05-29T09:37:26;5.68;;;3.50;;
55288;SDS011;41154;45.394;5.734;2023-05-29T09:39:52;9.23;;;4.35;;
55288;SDS011;41154;45.394;5.734;2023-05-29T09:42:18;6.45;;;3.40;;
55288;SDS011;41154;45.394;5.734;2023-05-29T09:44:44;6.20;;;3.20;;
55288;SDS011;41154;45.394;5.734;2023-05-29T09:47:14;4.80;;;3.17;;
55288;SDS011;41154;45.394;5.734;2023-05-29T09:49:42;6.22;;;3.88;;
55288;SDS011;41154;45.394;5.734;2023-05-29T09:52:12;9.18;;;3.60;;
55288;SDS011;41154;45.394;5.734;2023-05-29T09:54:43;5.18;;;3.53;;
55288;SDS011;41154;45.394;5.734;2023-05-29T09:57:16;6.07;;;3.45;;
55288;SDS011;41154;45.394;5.734;2023-05-29T09:59:45;5.28;;;3.40;;
55288;SDS011;41154;45.394;5.734;2023-05-29T10:02:17;6.13;;;3.40;;
55288;SDS011;41154;45.394;5.734;2023-05-29T10:04:43;21.77;;;10.68;;
55288;SDS011;41154;45.394;5.734;2023-05-29T10:07:11;8.13;;;5.03;;
55288;SDS011;41154;45.394;5.734;2023-05-29T10:09:46;6.90;;;3.83;;
55288;SDS011;41154;45.394;5.734;2023-05-29T10:12:16;4.78;;;3.42;;
55288;SDS011;41154;45.394;5.734;2023-05-29T10:14:46;8.35;;;3.65;;
55288;SDS011;41154;45.394;5.734;2023-05-29T10:17:15;6.50;;;4.00;;
55288;SDS011;41154;45.394;5.734;2023-05-29T10:19:48;5.22;;;3.30;;
55288;SDS011;41154;45.394;5.734;2023-05-29T10:22:20;5.63;;;3.63;;
55288;SDS011;41154;45.394;5.734;2023-05-29T10:24:50;8.43;;;3.72;;
55288;SDS011;41154;45.394;5.734;2023-05-29T10:27:18;9.02;;;3.97;;
55288;SDS011;41154;45.394;5.734;2023-05-29T10:35:40;5.55;;;3.85;;
55288;SDS011;41154;45.394;5.734;2023-05-29T10:38:12;4.05;;;3.47;;
55288;SDS011;41154;45.394;5.734;2023-05-29T10:40:42;8.25;;;3.78;;
55288;SDS011;41154;45.394;5.734;2023-05-29T10:43:08;7.25;;;3.80;;
55288;SDS011;41154;45.394;5.734;2023-05-29T10:53:10;6.90;;;3.47;;
55288;SDS011;41154;45.394;5.734;2023-05-29T10:55:40;6.43;;;3.85;;
55288;SDS011;41154;45.394;5.734;2023-05-29T10:58:15;4.82;;;3.40;;
55288;SDS011;41154;45.394;5.734;2023-05-29T11:03:48;7.30;;;3.85;;
55288;SDS011;41154;45.394;5.734;2023-05-29T11:06:21;5.35;;;3.70;;
55288;SDS011;41154;45.394;5.734;2023-05-29T11:08:58;9.07;;;4.38;;
55288;SDS011;41154;45.394;5.734;2023-05-29T11:13:53;7.95;;;3.45;;
55288;SDS011;41154;45.394;5.734;2023-05-29T11:18:51;5.18;;;3.75;;
55288;SDS011;41154;45.394;5.734;2023-05-29T11:24:27;7.50;;;4.40;;
55288;SDS011;41154;45.394;5.734;2023-05-29T11:26:59;7.18;;;3.63;;
55288;SDS011;41154;45.394;5.734;2023-05-29T11:29:30;5.90;;;4.30;;
55288;SDS011;41154;45.394;5.734;2023-05-29T11:34:25;6.57;;;4.30;;
55288;SDS011;41154;45.394;5.734;2023-05-29T11:37:03;6.53;;;4.13;;
55288;SDS011;41154;45.394;5.734;2023-05-29T11:39:48;4.93;;;3.63;;
55288;SDS011;41154;45.394;5.734;2023-05-29T11:42:15;7.13;;;3.80;;
55288;SDS011;41154;45.394;5.734;2023-05-29T11:44:40;8.43;;;4.10;;
55288;SDS011;41154;45.394;5.734;2023-05-29T11:47:06;5.50;;;3.63;;
55288;SDS011;41154;45.394;5.734;2023-05-29T11:49:34;5.28;;;3.92;;
55288;SDS011;41154;45.394;5.734;2023-05-29T11:52:13;5.85;;;4.10;;
55288;SDS011;41154;45.394;5.734;2023-05-29T11:54:40;5.38;;;3.92;;
55288;SDS011;41154;45.394;5.734;2023-05-29T11:57:21;7.15;;;3.60;;
55288;SDS011;41154;45.394;5.734;2023-05-29T11:59:51;10.65;;;4.25;;
55288;SDS011;41154;45.394;5.734;2023-05-29T12:02:23;7.57;;;4.05;;
55288;SDS011;41154;45.394;5.734;2023-05-29T12:11:33;7.10;;;4.13;;
55288;SDS011;41154;45.394;5.734;2023-05-29T12:14:00;7.00;;;3.95;;
55288;SDS011;41154;45.394;5.734;2023-05-29T12:16:27;6.38;;;3.85;;
55288;SDS011;41154;45.394;5.734;2023-05-29T12:22:11;6.18;;;4.18;;
55288;SDS011;41154;45.394;5.734;2023-05-29T12:24:36;7.22;;;4.05;;
55288;SDS011;41154;45.394;5.734;2023-05-29T12:27:05;6.15;;;3.90;;
55288;SDS011;41154;45.394;5.734;2023-05-29T12:29:33;9.30;;;3.95;;
55288;SDS011;41154;45.394;5.734;2023-05-29T12:31:58;7.72;;;4.22;;
55288;SDS011;41154;45.394;5.734;2023-05-29T12:34:26;8.00;;;4.00;;
55288;SDS011;41154;45.394;5.734;2023-05-29T12:36:51;6.95;;;3.85;;
55288;SDS011;41154;45.394;5.734;2023-05-29T12:39:17;5.88;;;4.20;;
55288;SDS011;41154;45.394;5.734;2023-05-29T12:41:43;7.43;;;3.70;;
55288;SDS011;41154;45.394;5.734;2023-05-29T12:44:09;6.70;;;4.10;;
55288;SDS011;41154;45.394;5.734;2023-05-29T12:46:35;8.07;;;3.78;;
55288;SDS011;41154;45.394;5.734;2023-05-29T12:49:17;5.35;;;3.63;;
55288;SDS011;41154;45.394;5.734;2023-05-29T12:51:45;5.50;;;3.67;;
55288;SDS011;41154;45.394;5.734;2023-05-29T12:54:11;7.50;;;4.30;;
55288;SDS011;41154;45.394;5.734;2023-05-29T12:56:39;7.10;;;3.83;;
55288;SDS011;41154;45.394;5.734;2023-05-29T12:59:06;6.05;;;3.75;;
55288;SDS011;41154;45.394;5.734;2023-05-29T13:01:33;7.05;;;3.65;;
55288;SDS011;41154;45.394;5.734;2023-05-29T13:03:59;6.88;;;3.33;;
55288;SDS011;41154;45.394;5.734;2023-05-29T13:06:25;5.82;;;3.70;;
55288;SDS011;41154;45.394;5.734;2023-05-29T13:08:51;7.85;;;4.18;;
55288;SDS011;41154;45.394;5.734;2023-05-29T13:13:47;8.35;;;3.58;;
55288;SDS011;41154;45.394;5.734;2023-05-29T13:16:13;6.28;;;3.80;;
55288;SDS011;41154;45.394;5.734;2023-05-29T13:18:38;6.47;;;3.72;;
55288;SDS011;41154;45.394;5.734;2023-05-29T13:21:04;6.22;;;4.07;;
55288;SDS011;41154;45.394;5.734;2023-05-29T13:23:31;8.98;;;4.10;;
55288;SDS011;41154;45.394;5.734;2023-05-29T13:25:57;7.00;;;3.88;;
55288;SDS011;41154;45.394;5.734;2023-05-29T13:28:22;5.80;;;3.80;;
55288;SDS011;41154;45.394;5.734;2023-05-29T13:30:49;6.63;;;3.78;;
55288;SDS011;41154;45.394;5.734;2023-05-29T13:33:14;7.60;;;4.10;;
55288;SDS011;41154;45.394;5.734;2023-05-29T13:35:40;8.68;;;3.83;;
55288;SDS011;41154;45.394;5.734;2023-05-29T13:38:06;7.22;;;3.97;;
55288;SDS011;41154;45.394;5.734;2023-05-29T13:40:31;8.00;;;3.17;;
55288;SDS011;41154;45.394;5.734;2023-05-29T13:42:57;5.13;;;3.83;;
55288;SDS011;41154;45.394;5.734;2023-05-29T13:45:23;6.82;;;3.13;;
55288;SDS011;41154;45.394;5.734;2023-05-29T13:47:49;8.30;;;4.43;;
55288;SDS011;41154;45.394;5.734;2023-05-29T13:50:15;6.20;;;3.95;;
55288;SDS011;41154;45.394;5.734;2023-05-29T13:52:41;6.90;;;3.72;;
55288;SDS011;41154;45.394;5.734;2023-05-29T13:55:07;6.05;;;3.95;;
55288;SDS011;41154;45.394;5.734;2023-05-29T13:57:34;7.35;;;4.00;;
55288;SDS011;41154;45.394;5.734;2023-05-29T14:00:02;4.45;;;3.38;;
55288;SDS011;41154;45.394;5.734;2023-05-29T14:02:30;6.75;;;3.55;;
55288;SDS011;41154;45.394;5.734;2023-05-29T14:04:56;5.95;;;3.70;;
55288;SDS011;41154;45.394;5.734;2023-05-29T14:07:22;6.18;;;3.30;;
55288;SDS011;41154;45.394;5.734;2023-05-29T14:09:48;5.15;;;3.60;;
55288;SDS011;41154;45.394;5.734;2023-05-29T14:12:13;6.05;;;3.15;;
55288;SDS011;41154;45.394;5.734;2023-05-29T14:14:39;5.40;;;3.60;;
55288;SDS011;41154;45.394;5.734;2023-05-29T14:17:05;7.50;;;4.25;;
55288;SDS011;41154;45.394;5.734;2023-05-29T14:19:31;5.22;;;3.50;;
55288;SDS011;41154;45.394;5.734;2023-05-29T14:21:57;6.32;;;3.50;;
55288;SDS011;41154;45.394;5.734;2023-05-29T14:24:25;4.85;;;3.25;;
55288;SDS011;41154;45.394;5.734;2023-05-29T14:26:51;5.18;;;3.90;;
55288;SDS011;41154;45.394;5.734;2023-05-29T14:29:17;5.85;;;3.53;;
55288;SDS011;41154;45.394;5.734;2023-05-29T14:31:43;7.78;;;3.65;;
55288;SDS011;41154;45.394;5.734;2023-05-29T14:34:09;4.80;;;3.42;;
55288;SDS011;41154;45.394;5.734;2023-05-29T14:36:35;7.10;;;3.95;;
55288;SDS011;41154;45.394;5.734;2023-05-29T14:39:02;5.22;;;3.53;;
55288;SDS011;41154;45.394;5.734;2023-05-29T14:41:28;7.03;;;3.80;;
55288;SDS011;41154;45.394;5.734;2023-05-29T14:43:54;5.68;;;3.50;;
55288;SDS011;41154;45.394;5.734;2023-05-29T14:46:23;6.15;;;3.53;;
55288;SDS011;41154;45.394;5.734;2023-05-29T14:48:51;5.03;;;3.65;;
55288;SDS011;41154;45.394;5.734;2023-05-29T14:51:17;5.03;;;3.42;;
55288;SDS011;41154;45.394;5.734;2023-05-29T14:53:44;10.05;;;4.05;;
55288;SDS011;41154;45.394;5.734;2023-05-29T14:56:10;38.03;;;6.03;;
55288;SDS011;41154;45.394;5.734;2023-05-29T14:58:35;8.85;;;4.15;;
55288;SDS011;41154;45.394;5.734;2023-05-29T15:01:02;6.30;;;3.83;;
55288;SDS011;41154;45.394;5.734;2023-05-29T15:03:27;6.03;;;3.83;;
55288;SDS011;41154;45.394;5.734;2023-05-29T15:05:54;5.32;;;3.40;;
55288;SDS011;41154;45.394;5.734;2023-05-29T15:08:19;7.70;;;3.95;;
55288;SDS011;41154;45.394;5.734;2023-05-29T15:10:45;6.43;;;3.67;;
55288;SDS011;41154;45.394;5.734;2023-05-29T15:13:11;7.20;;;3.50;;
55288;SDS011;41154;45.394;5.734;2023-05-29T15:15:37;4.93;;;3.40;;
55288;SDS011;41154;45.394;5.734;2023-05-29T15:18:03;6.70;;;3.70;;
55288;SDS011;41154;45.394;5.734;2023-05-29T15:20:29;5.30;;;3.55;;
55288;SDS011;41154;45.394;5.734;2023-05-29T15:22:54;6.22;;;3.58;;
55288;SDS011;41154;45.394;5.734;2023-05-29T15:25:20;6.43;;;3.78;;
55288;SDS011;41154;45.394;5.734;2023-05-29T15:27:47;5.93;;;3.75;;
55288;SDS011;41154;45.394;5.734;2023-05-29T15:30:14;5.82;;;3.75;;
55288;SDS011;41154;45.394;5.734;2023-05-29T15:32:41;7.55;;;4.05;;
55288;SDS011;41154;45.394;5.734;2023-05-29T15:35:08;5.75;;;3.80;;
55288;SDS011;41154;45.394;5.734;2023-05-29T15:37:35;5.70;;;3.60;;